Time;durP1;ratioP1;P1;durP2;ratioP2;P2;SDS_P1;SDS_P2;PMS_P1;PMS_P2;Temp;Humidity;BMP_temperature;BMP_pressure;BME280_temperature;BME280_humidity;BME280_pressure;Samples;Min_cycle;Max_cycle;Signal;HPM_P1;HPM_P2
2021/12/04 00:00:35;;;;;;;0.68;0.40;;;;;;;4.91;85.13;98286.22;6138085;23;20021;-78
2021/12/04 00:03:00;;;;;;;0.77;0.50;;;;;;;4.90;85.46;98277.44;6114489;23;20033;-78
2021/12/04 00:05:25;;;;;;;0.47;0.47;;;;;;;4.90;85.29;98280.09;6137257;23;20029;-80
2021/12/04 00:07:51;;;;;;;0.52;0.50;;;;;;;4.97;85.14;98278.53;6137983;23;20036;-78
2021/12/04 00:10:18;;;;;;;0.40;0.40;;;;;;;4.95;85.01;98266.41;6137433;23;20449;-78
2021/12/04 00:12:44;;;;;;;0.82;0.57;;;;;;;4.91;85.37;98265.84;6163006;23;20002;-79
2021/12/04 00:15:10;;;;;;;0.40;0.40;;;;;;;4.98;85.90;98258.16;6137802;23;20016;-79
2021/12/04 00:17:36;;;;;;;1.65;0.50;;;;;;;4.99;86.12;98249.25;6137912;23;20678;-79
2021/12/04 00:20:05;;;;;;;0.43;0.40;;;;;;;4.95;85.88;98240.75;6137991;23;20464;-79
2021/12/04 00:22:30;;;;;;;0.40;0.40;;;;;;;4.92;86.39;98245.50;6138169;23;20025;-78
2021/12/04 00:24:55;;;;;;;0.50;0.50;;;;;;;4.92;86.77;98245.50;6137823;23;20302;-80
2021/12/04 00:27:21;;;;;;;0.57;0.50;;;;;;;4.93;86.59;98239.22;6137904;23;20010;-78
2021/12/04 00:29:46;;;;;;;1.42;0.40;;;;;;;4.92;87.14;98240.22;6138340;23;20025;-79
2021/12/04 00:32:15;;;;;;;1.05;0.40;;;;;;;4.88;87.10;98234.38;6138037;23;20009;-80
2021/12/04 00:34:44;;;;;;;1.55;0.57;;;;;;;4.88;87.09;98234.38;6138207;23;20001;-78
2021/12/04 00:49:07;;;;;;;0.55;0.40;;;;;;;4.88;88.45;98220.28;6141704;23;20045;-79
2021/12/04 00:51:11;;;;;;;0.73;0.45;;;;;;;4.90;88.78;98215.69;6145806;23;20096;-79
2021/12/04 00:53:36;;;;;;;0.40;0.35;;;;;;;4.92;88.57;98219.03;6137664;23;20489;-78
2021/12/04 00:56:02;;;;;;;0.55;0.43;;;;;;;4.99;88.63;98215.66;6138082;23;20037;-79
2021/12/04 00:58:27;;;;;;;1.05;0.50;;;;;;;4.97;88.49;98211.47;6137728;23;20011;-78
2021/12/04 01:00:52;;;;;;;0.98;0.60;;;;;;;4.97;89.10;98200.88;6138112;23;20028;-79
2021/12/04 01:03:18;;;;;;;0.38;0.35;;;;;;;4.95;89.08;98192.25;6137847;23;20430;-80
2021/12/04 01:05:43;;;;;;;0.95;0.50;;;;;;;4.98;89.26;98186.66;6138092;23;20326;-78
2021/12/04 01:08:09;;;;;;;0.93;0.40;;;;;;;4.95;89.16;98185.13;6163763;23;20009;-79
2021/12/04 01:10:35;;;;;;;1.23;0.40;;;;;;;4.99;89.29;98188.31;6163961;23;20028;-80
2021/12/04 01:13:04;;;;;;;0.20;0.20;;;;;;;4.96;89.28;98183.31;6138434;23;20036;-80
2021/12/04 01:15:29;;;;;;;0.70;0.52;;;;;;;4.94;89.39;98174.69;6137999;23;19997;-78
2021/12/04 01:17:55;;;;;;;1.75;0.60;;;;;;;4.97;89.51;98175.22;6138695;23;20009;-78
2021/12/04 01:20:20;;;;;;;0.30;0.30;;;;;;;4.92;89.54;98180.13;6139321;23;20018;-80
2021/12/04 01:22:45;;;;;;;0.40;0.40;;;;;;;4.94;89.31;98170.22;6165455;23;20059;-79
2021/12/04 01:25:11;;;;;;;1.15;0.40;;;;;;;4.92;90.00;98158.94;6139667;23;20005;-78
2021/12/04 01:27:37;;;;;;;0.98;0.50;;;;;;;4.97;89.49;98156.69;6139536;23;20057;-79
2021/12/04 01:30:04;;;;;;;0.55;0.30;;;;;;;4.97;90.10;98158.50;6165710;23;20005;-78
2021/12/04 01:32:29;;;;;;;0.35;0.25;;;;;;;4.96;89.58;98159.47;6139441;23;20025;-80
2021/12/04 01:34:55;;;;;;;0.50;0.50;;;;;;;4.95;90.07;98153.34;6139011;23;20037;-78
2021/12/04 01:37:20;;;;;;;0.35;0.30;;;;;;;4.93;89.82;98154.47;6163701;23;20096;-79
2021/12/04 01:39:45;;;;;;;0.52;0.30;;;;;;;4.91;89.86;98162.56;6139552;23;20001;-79
2021/12/04 01:42:11;;;;;;;0.30;0.30;;;;;;;4.91;90.04;98154.63;6139526;23;20418;-78
2021/12/04 01:44:36;;;;;;;1.35;0.40;;;;;;;4.93;89.97;98144.72;6139206;23;20001;-80
2021/12/04 01:47:11;;;;;;;0.38;0.38;;;;;;;4.96;90.53;98135.66;6139289;23;20006;-78
2021/12/04 01:49:36;;;;;;;0.50;0.50;;;;;;;4.92;90.25;98135.13;6164032;23;20013;-78
2021/12/04 01:52:01;;;;;;;0.22;0.22;;;;;;;4.95;90.27;98129.53;6139139;23;20386;-78
2021/12/04 01:54:27;;;;;;;1.25;0.40;;;;;;;4.91;90.40;98124.66;6165235;23;20009;-78
2021/12/04 01:56:52;;;;;;;0.40;0.40;;;;;;;4.97;90.64;98134.66;6139465;23;20001;-78
2021/12/04 01:59:17;;;;;;;0.32;0.32;;;;;;;4.95;90.70;98133.97;6139443;23;20682;-79
2021/12/04 02:01:45;;;;;;;0.40;0.40;;;;;;;4.97;90.51;98134.66;6138542;23;20025;-79
2021/12/04 02:04:10;;;;;;;0.30;0.30;;;;;;;4.92;90.46;98128.97;6139083;23;20014;-79
2021/12/04 02:06:35;;;;;;;1.02;0.30;;;;;;;4.90;90.83;98125.66;6165252;23;20038;-79
2021/12/04 02:09:01;;;;;;;0.30;0.30;;;;;;;4.95;90.93;98126.88;6163996;23;20013;-79
2021/12/04 02:11:26;;;;;;;0.45;0.40;;;;;;;4.94;90.62;98121.72;6164895;23;20028;-79
2021/12/04 02:13:51;;;;;;;0.28;0.28;;;;;;;4.95;90.71;98118.94;6163178;23;20060;-78
2021/12/04 02:16:18;;;;;;;0.30;0.30;;;;;;;4.98;90.87;98120.44;6138762;23;20148;-79
2021/12/04 02:18:44;;;;;;;0.40;0.30;;;;;;;4.95;90.66;98116.28;6138861;23;20017;-78
2021/12/04 02:21:10;;;;;;;0.20;0.17;;;;;;;4.94;91.07;98106.66;6163937;23;20012;-79
2021/12/04 02:23:35;;;;;;;0.77;0.30;;;;;;;4.94;90.67;98101.38;6138541;23;20480;-78
2021/12/04 02:26:01;;;;;;;0.25;0.25;;;;;;;4.95;90.96;98095.09;6139408;23;20032;-79
2021/12/04 02:28:26;;;;;;;0.50;0.32;;;;;;;5.00;90.53;98086.69;6164998;23;20001;-77
2021/12/04 02:30:52;;;;;;;0.85;0.30;;;;;;;4.97;91.16;98092.28;6163315;23;20064;-77
2021/12/04 02:33:18;;;;;;;0.20;0.20;;;;;;;4.99;91.09;98090.31;6138640;23;20021;-78
2021/12/04 02:35:52;;;;;;;0.25;0.20;;;;;;;4.96;91.49;98094.09;6138756;23;20009;-78
2021/12/04 02:38:18;;;;;;;0.38;0.10;;;;;;;4.93;91.58;98091.75;6163475;23;20010;-78
2021/12/04 02:40:46;;;;;;;0.22;0.22;;;;;;;4.92;91.52;98087.44;6163227;23;20516;-79
2021/12/04 02:43:12;;;;;;;0.20;0.20;;;;;;;4.92;91.82;98083.97;6138685;23;20485;-79
2021/12/04 02:45:37;;;;;;;0.17;0.17;;;;;;;4.95;91.39;98081.03;6138141;23;20009;-79
2021/12/04 02:48:03;;;;;;;0.20;0.20;;;;;;;4.95;91.34;98073.06;6138849;23;20710;-77
2021/12/04 02:50:28;;;;;;;0.22;0.20;;;;;;;4.94;91.95;98071.41;6138469;23;20028;-78
2021/12/04 02:52:54;;;;;;;0.70;0.25;;;;;;;4.94;91.55;98069.59;6165096;23;20056;-79
2021/12/04 02:55:19;;;;;;;0.25;0.20;;;;;;;4.93;91.79;98064.44;6164301;23;20110;-77
2021/12/04 02:57:45;;;;;;;0.22;0.20;;;;;;;4.96;91.50;98054.38;6138995;23;20005;-78
2021/12/04 03:00:19;;;;;;;0.20;0.20;;;;;;;4.94;92.08;98047.56;6162883;23;20024;-78
2021/12/04 03:02:45;;;;;;;0.30;0.30;;;;;;;4.96;91.75;98043.78;6163080;23;19998;-78
2021/12/04 03:05:11;;;;;;;0.20;0.20;;;;;;;4.95;91.75;98036.81;6138870;23;20025;-79
2021/12/04 03:07:38;;;;;;;0.40;0.30;;;;;;;4.98;91.79;98033.03;6114084;23;20496;-79
2021/12/04 03:10:04;;;;;;;0.20;0.20;;;;;;;4.96;92.14;98027.06;6163121;23;20008;-79
2021/12/04 03:12:29;;;;;;;0.17;0.17;;;;;;;4.97;91.98;98020.78;6138349;23;20061;-78
2021/12/04 03:14:55;;;;;;;0.47;0.30;;;;;;;4.96;91.46;98016.47;6138433;23;20013;-79
2021/12/04 03:17:25;;;;;;;0.25;0.25;;;;;;;4.92;91.77;98015.09;6163226;23;20016;-78
2021/12/04 03:19:51;;;;;;;0.10;0.10;;;;;;;4.92;92.38;98017.75;6138644;23;20013;-78
2021/12/04 03:22:18;;;;;;;0.30;0.30;;;;;;;4.93;91.95;98011.47;6138747;23;20013;-78
2021/12/04 03:24:44;;;;;;;0.20;0.20;;;;;;;4.93;92.33;98009.66;6137735;23;20088;-78
2021/12/04 03:27:10;;;;;;;0.20;0.20;;;;;;;4.92;92.40;98001.88;6138518;23;20013;-78
2021/12/04 03:29:42;;;;;;;1.00;0.20;;;;;;;4.92;91.65;98001.88;6164578;23;20842;-79
2021/12/04 03:43:01;;;;;;;0.20;0.20;;;;;;;4.91;92.66;97995.75;6164573;23;20016;-77
2021/12/04 03:45:26;;;;;;;0.20;0.20;;;;;;;4.87;92.67;97991.72;6163794;23;20035;-77
2021/12/04 03:47:56;;;;;;;0.40;0.30;;;;;;;4.83;93.03;98000.13;6113738;23;20092;-79
2021/12/04 03:50:21;;;;;;;0.30;0.30;;;;;;;4.81;93.08;98005.56;6162594;23;20082;-79
2021/12/04 03:52:47;;;;;;;0.30;0.30;;;;;;;4.82;93.35;98006.41;6162796;23;20013;-80
2021/12/04 03:55:12;;;;;;;0.20;0.20;;;;;;;4.83;93.78;98013.38;6137982;23;20012;-78
2021/12/04 03:57:44;;;;;;;0.20;0.20;;;;;;;4.83;93.45;98000.97;6138500;23;20140;-79
2021/12/04 04:00:18;;;;;;;0.20;0.20;;;;;;;4.83;93.31;97997.47;6139560;23;20006;-78
2021/12/04 04:02:43;;;;;;;0.98;0.40;;;;;;;4.85;93.52;97996.34;6138704;23;20009;-79
2021/12/04 04:05:09;;;;;;;0.35;0.20;;;;;;;4.85;93.30;97988.41;6137576;23;20442;-78
2021/12/04 04:07:34;;;;;;;0.30;0.30;;;;;;;4.84;93.37;97986.75;6138306;23;20013;-78
2021/12/04 04:10:00;;;;;;;0.60;0.35;;;;;;;4.83;93.35;97993.00;6162631;23;20013;-78
2021/12/04 04:12:25;;;;;;;0.50;0.45;;;;;;;4.82;93.31;97998.47;6133227;23;20327;-78
2021/12/04 04:14:50;;;;;;;0.50;0.40;;;;;;;4.82;93.49;97998.47;6134627;23;20014;-78
2021/12/04 04:17:18;;;;;;;0.30;0.30;;;;;;;4.79;93.83;97989.00;6134693;23;20403;-79
2021/12/04 04:19:43;;;;;;;0.63;0.47;;;;;;;4.81;93.51;97994.97;6133068;23;20006;-79
2021/12/04 04:22:08;;;;;;;0.30;0.30;;;;;;;4.81;93.94;97994.16;6134841;23;20077;-78
2021/12/04 04:24:34;;;;;;;0.25;0.25;;;;;;;4.84;93.76;97988.56;6133022;23;20002;-79
2021/12/04 04:27:00;;;;;;;1.23;0.57;;;;;;;4.85;94.06;97982.28;6133019;23;20006;-79
2021/12/04 04:29:26;;;;;;;1.75;0.95;;;;;;;4.84;93.73;97976.16;6133360;23;20006;-78
2021/12/04 04:31:53;;;;;;;0.90;0.80;;;;;;;4.83;93.96;97977.13;6108626;23;20008;-78
2021/12/04 04:34:27;;;;;;;1.00;0.90;;;;;;;4.83;93.62;97971.84;6133003;23;20592;-79
2021/12/04 05:02:00;;;;;;;1.08;0.80;;;;;;;4.83;94.66;97960.41;6136357;23;20025;-78
2021/12/04 05:15:17;;;;;;;1.17;0.90;;;;;;;4.83;94.39;97958.59;6136117;23;20021;-78
2021/12/04 05:20:32;;;;;;;1.45;1.10;;;;;;;4.84;94.23;97957.63;6135130;23;20077;-78
2021/12/04 05:22:58;;;;;;;1.10;0.95;;;;;;;4.85;94.65;97964.56;6113805;23;20037;-78
2021/12/04 05:25:23;;;;;;;1.77;0.90;;;;;;;4.84;94.20;97965.56;6134537;23;20077;-78
2021/12/04 05:27:49;;;;;;;1.27;0.85;;;;;;;4.84;94.39;97957.63;6134698;23;20005;-78
2021/12/04 05:30:14;;;;;;;1.00;0.80;;;;;;;4.85;94.43;97967.22;6134479;23;20005;-79
2021/12/04 05:32:39;;;;;;;1.73;0.70;;;;;;;4.83;94.05;97963.88;6135660;23;20030;-79
2021/12/04 05:35:05;;;;;;;0.88;0.65;;;;;;;4.83;94.47;97957.75;6134355;23;20053;-79
2021/12/04 05:37:32;;;;;;;1.27;0.70;;;;;;;4.84;94.61;97962.06;6134150;23;20017;-78
2021/12/04 05:39:57;;;;;;;0.75;0.75;;;;;;;4.86;93.94;97954.81;6134386;23;20016;-79
2021/12/04 05:42:22;;;;;;;1.30;0.80;;;;;;;4.84;93.96;97954.97;6134435;23;20029;-78
2021/12/04 05:44:48;;;;;;;0.85;0.80;;;;;;;4.85;94.01;97953.16;6134022;23;20025;-78
2021/12/04 05:47:24;;;;;;;1.05;0.77;;;;;;;4.83;94.59;97948.00;6134139;23;20113;-78
2021/12/04 05:57:40;;;;;;;0.80;0.60;;;;;;;4.80;94.32;97924.47;6136005;23;20057;-79
2021/12/04 06:00:07;;;;;;;0.63;0.63;;;;;;;4.81;94.24;97920.00;6134746;23;20101;-80
2021/12/04 06:02:33;;;;;;;0.95;0.70;;;;;;;4.77;94.19;97918.66;6135553;23;20041;-79
2021/12/04 06:04:58;;;;;;;1.33;1.10;;;;;;;4.79;94.85;97924.63;6109406;23;20006;-77
2021/12/04 06:07:24;;;;;;;1.27;0.90;;;;;;;4.80;94.47;97913.88;6134414;23;20037;-77
2021/12/04 06:09:49;;;;;;;0.55;0.55;;;;;;;4.79;94.60;97920.16;6134398;23;20013;-79
2021/12/04 06:12:14;;;;;;;0.70;0.70;;;;;;;4.79;94.20;97929.94;6162963;23;20017;-79
2021/12/04 06:14:42;;;;;;;0.70;0.70;;;;;;;4.79;94.21;97932.56;6164987;23;20765;-77
2021/12/04 06:17:08;;;;;;;0.73;0.70;;;;;;;4.79;94.34;97924.63;6140014;23;20323;-79
2021/12/04 06:25:01;;;;;;;0.70;0.70;;;;;;;4.77;95.08;97922.13;6142354;23;20040;-78
2021/12/04 06:27:34;;;;;;;1.00;0.90;;;;;;;4.80;94.32;97927.13;6163529;23;20009;-79
2021/12/04 06:29:59;;;;;;;1.30;1.00;;;;;;;4.79;94.60;97920.16;6138847;23;20015;-78
2021/12/04 06:32:25;;;;;;;3.03;1.10;;;;;;;4.80;94.66;97921.00;6165080;23;20473;-79
2021/12/04 06:34:52;;;;;;;1.88;1.23;;;;;;;4.78;94.37;97925.63;6164619;23;20006;-79
2021/12/04 06:37:17;;;;;;;2.38;1.50;;;;;;;4.76;94.50;97925.78;6139151;23;20013;-78
2021/12/04 06:39:42;;;;;;;2.17;1.40;;;;;;;4.78;94.23;97936.22;6138732;23;20012;-78
2021/12/04 06:42:08;;;;;;;1.20;1.10;;;;;;;4.80;94.37;97931.59;6138756;23;20060;-78
2021/12/04 06:44:34;;;;;;;1.27;1.15;;;;;;;4.79;94.18;97924.63;6138428;23;20005;-78
2021/12/04 06:46:59;;;;;;;2.10;1.17;;;;;;;4.80;94.17;97935.06;6138816;23;20020;-80
2021/12/04 06:49:30;;;;;;;1.23;1.10;;;;;;;4.80;94.31;97935.06;6138840;23;20006;-78
2021/12/04 06:51:58;;;;;;;4.32;3.92;;;;;;;4.81;93.95;97938.56;6139831;23;20009;-79
2021/12/04 06:54:28;;;;;;;2.03;1.83;;;;;;;4.80;94.19;97936.88;6138558;23;20012;-78
2021/12/04 06:56:53;;;;;;;1.20;1.10;;;;;;;4.80;94.11;97937.72;6164686;23;20005;-79
2021/12/04 06:59:24;;;;;;;1.38;1.27;;;;;;;4.79;94.39;97930.75;6138858;23;20009;-79
2021/12/04 07:01:49;;;;;;;1.27;1.17;;;;;;;4.80;94.40;97934.25;6164601;23;20028;-79
2021/12/04 07:04:17;;;;;;;1.63;1.40;;;;;;;4.80;94.27;97935.06;6138195;23;20013;-79
2021/12/04 07:06:42;;;;;;;1.73;1.40;;;;;;;4.80;94.37;97940.38;6163246;23;20005;-79
2021/12/04 07:09:08;;;;;;;1.30;1.20;;;;;;;4.82;94.07;97938.41;6138763;23;20062;-80
2021/12/04 07:11:34;;;;;;;1.60;1.20;;;;;;;4.81;94.19;97934.09;6162560;23;20077;-78
2021/12/04 07:13:59;;;;;;;1.45;1.35;;;;;;;4.80;93.76;97926.28;6138018;23;20009;-77
2021/12/04 07:16:25;;;;;;;1.95;1.25;;;;;;;4.80;93.62;97927.13;6137803;23;20013;-78
2021/12/04 07:18:51;;;;;;;1.52;0.90;;;;;;;4.80;94.37;97928.94;6138876;23;20056;-79
2021/12/04 07:21:16;;;;;;;1.20;1.10;;;;;;;4.80;93.79;97935.06;6138558;23;20005;-79
2021/12/04 07:23:42;;;;;;;1.38;1.27;;;;;;;4.82;93.70;97935.75;6138300;23;20006;-79
2021/12/04 07:26:08;;;;;;;1.88;1.77;;;;;;;4.83;94.08;97939.22;6162064;23;20002;-79
2021/12/04 07:28:34;;;;;;;1.77;1.33;;;;;;;4.83;93.72;97940.06;6137921;23;20020;-79
2021/12/04 07:31:00;;;;;;;1.30;1.20;;;;;;;4.85;93.65;97942.56;6137841;23;20096;-78
2021/12/04 07:33:25;;;;;;;1.55;1.40;;;;;;;4.86;93.92;97942.41;6137751;23;20064;-79
2021/12/04 07:35:51;;;;;;;1.60;1.40;;;;;;;4.86;93.58;97936.28;6138613;23;20334;-78
2021/12/04 07:38:17;;;;;;;1.85;1.50;;;;;;;4.87;93.94;97933.47;6138651;23;20001;-79
2021/12/04 07:40:43;;;;;;;3.80;1.50;;;;;;;4.86;93.97;97938.91;6113865;23;19997;-79
2021/12/04 07:43:09;;;;;;;1.70;1.52;;;;;;;4.86;93.77;97937.09;6161994;23;20009;-78
2021/12/04 07:45:34;;;;;;;1.65;1.42;;;;;;;4.86;93.88;97928.34;6137412;23;20002;-78
2021/12/04 07:47:59;;;;;;;3.40;1.80;;;;;;;4.87;94.06;97930.00;6113326;23;20168;-79
2021/12/04 07:50:25;;;;;;;2.05;1.80;;;;;;;4.87;94.02;97930.81;6137970;23;20096;-78
2021/12/04 07:52:50;;;;;;;1.52;1.40;;;;;;;4.88;93.85;97939.59;6138309;23;20009;-78
2021/12/04 07:55:16;;;;;;;1.58;1.30;;;;;;;4.89;93.93;97930.69;6138044;23;20021;-79
2021/12/04 07:57:41;;;;;;;1.83;1.73;;;;;;;4.88;94.19;97935.13;6138281;23;20006;-79
2021/12/04 08:00:11;;;;;;;2.53;1.23;;;;;;;4.88;94.30;97929.84;6162606;23;20013;-79
2021/12/04 08:02:38;;;;;;;1.30;1.20;;;;;;;4.87;93.76;97933.47;6138020;23;20040;-79
2021/12/04 08:05:03;;;;;;;1.67;1.58;;;;;;;4.88;93.83;97931.66;6137865;23;20073;-79
2021/12/04 08:07:29;;;;;;;1.58;1.48;;;;;;;4.90;93.92;97924.41;6137006;23;20005;-78
2021/12/04 08:09:54;;;;;;;2.15;1.42;;;;;;;4.91;93.96;97926.06;6138409;23;20005;-78
2021/12/04 08:12:19;;;;;;;1.52;1.42;;;;;;;4.88;94.30;97911.31;6137252;23;20040;-79
2021/12/04 08:14:45;;;;;;;1.80;1.40;;;;;;;4.89;94.31;97910.31;6137640;23;20024;-78
2021/12/04 08:17:12;;;;;;;1.48;1.38;;;;;;;4.79;94.34;97906.94;6137942;23;20002;-85
2021/12/04 08:19:38;;;;;;;2.35;1.80;;;;;;;4.79;94.66;97906.09;6113451;23;20024;-79
2021/12/04 08:22:04;;;;;;;2.08;1.77;;;;;;;4.84;94.32;97907.31;6163889;23;20013;-78
2021/12/04 08:24:29;;;;;;;3.15;2.47;;;;;;;4.87;94.96;97911.47;6161800;23;20013;-78
2021/12/04 08:26:54;;;;;;;2.28;2.03;;;;;;;4.91;94.80;97916.28;6138476;23;20001;-79
2021/12/04 08:29:20;;;;;;;2.08;1.88;;;;;;;4.92;94.85;97919.78;6165444;23;20032;-77
2021/12/04 08:31:47;;;;;;;2.35;1.88;;;;;;;4.93;94.83;97910.84;6165792;23;20005;-78
2021/12/04 08:34:13;;;;;;;2.13;1.70;;;;;;;4.95;94.82;97912.34;6139802;23;20068;-79
2021/12/04 08:36:38;;;;;;;2.38;1.90;;;;;;;4.98;94.91;97908.56;6139734;23;20002;-77
2021/12/04 08:39:05;;;;;;;2.58;1.90;;;;;;;4.99;94.27;97899.63;6163962;23;20088;-78
2021/12/04 08:41:30;;;;;;;2.00;1.83;;;;;;;5.01;94.85;97898.50;6164193;23;20321;-79
2021/12/04 08:43:56;;;;;;;2.35;1.85;;;;;;;5.02;94.68;97894.03;6165430;23;20013;-78
2021/12/04 08:46:22;;;;;;;2.65;2.05;;;;;;;5.05;95.19;97891.91;6165016;23;20075;-76
2021/12/04 08:48:50;;;;;;;2.20;1.90;;;;;;;5.09;94.62;97892.44;6138512;23;20025;-80
2021/12/04 08:51:17;;;;;;;2.42;1.85;;;;;;;5.13;95.15;97890.28;6138750;23;20019;-78
2021/12/04 08:53:43;;;;;;;3.17;2.10;;;;;;;5.12;95.23;97881.53;6139456;23;20005;-78
2021/12/04 08:56:08;;;;;;;2.20;1.90;;;;;;;5.14;95.09;97889.31;6139552;23;20037;-77
2021/12/04 08:58:36;;;;;;;2.47;1.95;;;;;;;5.14;94.95;97879.53;6138889;23;20006;-79
2021/12/04 09:01:04;;;;;;;2.72;2.08;;;;;;;5.16;94.96;97887.34;6164324;23;20060;-78
2021/12/04 09:03:37;;;;;;;3.47;2.15;;;;;;;5.16;95.09;97888.16;6165161;23;20009;-78
2021/12/04 09:06:04;;;;;;;2.30;2.03;;;;;;;5.15;95.30;97881.22;6162461;23;20032;-79
2021/12/04 09:08:31;;;;;;;2.85;1.85;;;;;;;5.17;94.87;97876.59;6138233;23;20489;-79
2021/12/04 09:10:59;;;;;;;2.42;1.88;;;;;;;5.19;94.87;97874.63;6138179;23;20023;-78
2021/12/04 09:13:28;;;;;;;2.65;1.70;;;;;;;5.19;94.87;97869.31;6164205;23;20009;-80
2021/12/04 09:15:53;;;;;;;2.22;1.70;;;;;;;5.17;94.74;97868.63;6138857;23;20448;-79
2021/12/04 09:18:19;;;;;;;4.32;1.83;;;;;;;5.18;95.17;97872.13;6138498;23;20006;-78
2021/12/04 09:20:46;;;;;;;2.03;1.73;;;;;;;5.21;95.35;97870.03;6138919;23;20021;-79
2021/12/04 09:23:17;;;;;;;2.38;1.83;;;;;;;5.19;95.16;97863.19;6139374;23;20013;-78
2021/12/04 09:25:47;;;;;;;2.15;1.80;;;;;;;5.17;95.11;97865.16;6139403;23;20326;-78
2021/12/04 10:00:23;;;;;;;3.10;1.90;;;;;;;5.28;94.85;97811.94;6141066;23;20074;-78
2021/12/04 10:06:00;;;;;;;2.15;1.63;;;;;;;5.29;95.04;97797.69;6134441;23;20005;-80
2021/12/04 10:33:18;;;;;;;2.72;1.90;;;;;;;5.47;95.14;97802.91;6140296;23;20796;-79
2021/12/04 10:35:46;;;;;;;2.95;2.10;;;;;;;5.47;94.86;97769.28;6136262;23;20694;-78
2021/12/04 10:38:24;;;;;;;3.13;1.67;;;;;;;5.49;95.00;97762.00;6159838;23;20013;-80
2021/12/04 10:40:51;;;;;;;2.03;1.83;;;;;;;5.50;95.37;97758.34;6136228;23;20013;-79
2021/12/04 10:43:23;;;;;;;3.40;1.90;;;;;;;5.54;95.52;97748.25;6134895;23;20935;-79
2021/12/04 10:45:55;;;;;;;1.98;1.77;;;;;;;5.55;95.77;97739.31;6134409;23;20002;-78
2021/12/04 10:48:25;;;;;;;2.72;2.03;;;;;;;5.53;95.56;97736.81;6135213;23;19998;-80
2021/12/04 10:53:49;;;;;;;2.75;1.90;;;;;;;5.55;95.75;97713.63;6139117;23;20041;-81
2021/12/04 11:04:30;;;;;;;2.50;2.05;;;;;;;5.64;95.49;97694.09;6137077;23;20037;-80
2021/12/04 11:23:58;;;;;;;4.13;3.08;;;;;;;5.69;95.88;97662.66;6157993;23;20025;-80
2021/12/04 11:39:37;;;;;;;3.85;2.28;;;;;;;5.74;95.81;97630.34;6135534;23;20009;-79
2021/12/04 11:44:53;;;;;;;3.85;2.90;;;;;;;5.75;95.43;97629.34;6138316;23;20044;-79
2021/12/04 11:47:20;;;;;;;4.43;2.95;;;;;;;5.76;95.88;97624.88;6110316;23;20016;-81
2021/12/04 11:49:46;;;;;;;3.20;2.80;;;;;;;5.75;95.92;97618.75;6134572;23;20952;-80
2021/12/04 11:52:19;;;;;;;3.97;3.55;;;;;;;5.76;95.67;97620.41;6133846;23;20040;-79
2021/12/04 11:54:57;;;;;;;4.68;3.55;;;;;;;5.75;95.62;97617.91;6158235;23;20013;-79
2021/12/04 11:57:28;;;;;;;4.18;3.78;;;;;;;5.74;96.22;97621.56;6135051;23;20073;-80
2021/12/04 11:59:54;;;;;;;4.90;3.63;;;;;;;5.72;96.32;97618.25;6134336;23;20002;-78
2021/12/04 12:02:24;;;;;;;4.63;3.28;;;;;;;5.71;95.76;97616.59;6133322;23;20012;-81
2021/12/04 12:04:53;;;;;;;5.90;3.50;;;;;;;5.73;96.19;97614.59;6157551;23;20010;-80
2021/12/04 12:07:19;;;;;;;;;;;;;;;5.74;95.89;97616.25;6157935;23;20002;-81
2021/12/04 12:09:49;;;;;;;4.65;4.10;;;;;;;5.74;96.26;97617.09;6133347;23;19915;-80
2021/12/04 12:12:16;;;;;;;6.80;4.70;;;;;;;5.74;96.46;97621.56;6134293;23;20037;-80
2021/12/04 12:14:50;;;;;;;5.75;4.32;;;;;;;5.72;96.67;97618.25;6133537;23;20013;-79
2021/12/04 12:17:33;;;;;;;6.43;4.03;;;;;;;5.72;97.08;97623.56;6135349;23;20013;-80
2021/12/04 12:19:59;;;;;;;3.35;3.05;;;;;;;5.73;96.56;97628.69;6159018;23;20016;-79
2021/12/04 12:22:38;;;;;;;3.40;3.10;;;;;;;5.72;97.43;97624.38;6134586;23;20078;-79
2021/12/04 12:25:34;;;;;;;4.65;3.10;;;;;;;5.76;96.98;97627.53;6135113;23;20699;-82
2021/12/04 12:36:25;;;;;;;7.55;6.47;;;;;;;5.81;97.29;97628.69;6135213;23;20010;-79
2021/12/04 12:38:55;;;;;;;;;;;;;;;5.81;97.20;97627.84;6133859;23;20009;-80
2021/12/04 12:41:37;;;;;;;8.25;5.88;;;;;;;5.82;97.01;97630.34;6133966;23;19964;-79
2021/12/04 12:44:19;;;;;;;6.75;5.32;;;;;;;5.81;97.61;97622.56;6134540;23;20044;-78
2021/12/04 12:46:48;;;;;;;6.07;4.88;;;;;;;5.77;97.37;97630.00;6133861;23;20319;-80
2021/12/04 12:49:39;;;;;;;5.50;3.78;;;;;;;5.76;98.05;97620.41;6134236;23;20017;-80
2021/12/04 12:52:10;;;;;;;4.13;3.65;;;;;;;5.80;97.64;97620.91;6138392;23;20068;-79
2021/12/04 12:54:43;;;;;;;6.63;5.38;;;;;;;5.79;98.20;97619.25;6134314;23;20008;-80
2021/12/04 12:57:15;;;;;;;3.72;2.83;;;;;;;5.79;97.66;97621.91;6134139;23;20020;-80
2021/12/04 13:11:34;;;;;;;3.88;3.47;;;;;;;5.78;98.05;97614.94;6133451;23;20020;-80
2021/12/04 13:14:11;;;;;;;3.67;3.17;;;;;;;5.74;97.86;97593.22;6161273;23;20436;-79
2021/12/04 13:16:37;;;;;;;4.57;3.35;;;;;;;5.75;98.49;97602.00;6136592;23;20067;-79
2021/12/04 13:19:07;;;;;;;4.95;3.85;;;;;;;5.74;98.63;97593.22;6136287;23;20009;-81
2021/12/04 13:21:34;;;;;;;6.60;5.13;;;;;;;5.73;98.07;97594.22;6136220;23;20009;-77
2021/12/04 13:23:59;;;;;;;6.65;5.63;;;;;;;5.77;98.93;97602.66;6133838;23;20021;-80
2021/12/04 13:26:30;;;;;;;4.80;3.80;;;;;;;5.77;98.77;97614.09;6134367;23;20453;-79
2021/12/04 13:29:00;;;;;;;3.17;2.88;;;;;;;5.80;98.54;97607.63;6134827;23;20044;-81
2021/12/04 13:31:26;;;;;;;4.88;4.07;;;;;;;5.80;98.49;97616.41;6135265;23;20616;-80
2021/12/04 13:33:53;;;;;;;9.02;5.97;;;;;;;5.78;98.74;97621.06;6135210;23;20013;-79
2021/12/04 13:36:25;;;;;;;5.15;4.50;;;;;;;5.77;98.42;97629.19;6159402;23;20032;-81
2021/12/04 13:39:06;;;;;;;4.50;3.50;;;;;;;5.78;98.19;97642.28;6134377;23;20009;-82
2021/12/04 13:41:32;;;;;;;4.75;3.90;;;;;;;5.76;98.78;97640.78;6135080;23;20009;-80
2021/12/04 13:43:59;;;;;;;4.20;3.22;;;;;;;5.75;98.70;97642.59;6134636;23;20453;-81
2021/12/04 13:46:25;;;;;;;4.10;3.33;;;;;;;5.78;98.80;97647.59;6159450;23;20009;-81
2021/12/04 13:48:51;;;;;;;3.85;3.00;;;;;;;5.81;98.14;97657.84;6111311;23;20017;-80
2021/12/04 13:51:17;;;;;;;3.38;3.00;;;;;;;5.81;98.27;97670.28;6160313;23;20001;-79
2021/12/04 13:53:45;;;;;;;3.53;3.08;;;;;;;5.81;98.24;97668.47;6160145;23;20059;-81
2021/12/04 13:56:14;;;;;;;3.90;2.80;;;;;;;5.77;98.30;97674.25;6135340;23;20016;-81
2021/12/04 13:58:50;;;;;;;3.70;3.40;;;;;;;5.73;98.27;97681.72;6159251;23;20036;-81
2021/12/04 14:01:16;;;;;;;4.03;3.30;;;;;;;5.67;97.94;97693.78;6135389;23;20024;-80
2021/12/04 14:03:42;;;;;;;3.20;2.65;;;;;;;5.68;98.71;97689.34;6133456;23;20017;-80
2021/12/04 14:06:17;;;;;;;2.47;2.17;;;;;;;5.69;98.63;97702.44;6134858;23;20005;-82
2021/12/04 14:08:58;;;;;;;2.63;2.08;;;;;;;5.67;97.95;97698.25;6135368;23;20101;-80
2021/12/04 14:11:31;;;;;;;1.55;1.42;;;;;;;5.66;97.88;97707.19;6135154;23;20069;-80
2021/12/04 14:13:57;;;;;;;5.90;4.80;;;;;;;5.66;97.80;97707.19;6135278;23;20014;-79
2021/12/04 14:16:24;;;;;;;2.13;1.92;;;;;;;5.67;98.07;97711.50;6159605;23;20502;-81
2021/12/04 14:18:50;;;;;;;1.30;1.15;;;;;;;5.65;97.87;97705.53;6135828;23;20013;-81
2021/12/04 14:21:15;;;;;;;2.35;1.60;;;;;;;5.61;97.37;97712.16;6110906;23;20062;-80
2021/12/04 14:23:41;;;;;;;2.95;1.88;;;;;;;5.57;97.35;97701.06;6135396;23;20055;-80
2021/12/04 14:26:08;;;;;;;2.05;1.60;;;;;;;5.59;97.87;97700.88;6159358;23;20009;-81
2021/12/04 14:28:39;;;;;;;2.40;1.30;;;;;;;5.61;97.75;97704.22;6111148;23;20013;-79
2021/12/04 14:31:05;;;;;;;2.17;1.42;;;;;;;5.62;97.75;97706.69;6136155;23;20010;-81
2021/12/04 14:33:30;;;;;;;2.13;1.27;;;;;;;5.60;97.47;97700.72;6110683;23;20014;-81
2021/12/04 14:35:55;;;;;;;1.75;1.50;;;;;;;5.62;97.35;97701.41;6135478;23;20013;-81
2021/12/04 14:38:24;;;;;;;2.75;1.33;;;;;;;5.64;97.50;97714.47;6135483;23;20018;-81
2021/12/04 14:41:08;;;;;;;1.50;1.40;;;;;;;5.64;97.35;97712.66;6160122;23;20064;-81
2021/12/04 14:43:37;;;;;;;1.65;1.30;;;;;;;5.63;96.84;97710.16;6134763;23;20013;-81
2021/12/04 14:46:05;;;;;;;1.67;1.58;;;;;;;5.66;97.52;97712.50;6110719;23;20009;-81
2021/12/04 14:48:38;;;;;;;2.20;1.50;;;;;;;5.64;97.31;97720.63;6159542;23;20477;-80
2021/12/04 14:51:14;;;;;;;2.47;1.60;;;;;;;5.64;97.33;97730.38;6110889;23;20068;-81
2021/12/04 14:53:45;;;;;;;2.83;1.85;;;;;;;5.65;97.20;97730.22;6134345;23;20065;-80
2021/12/04 14:56:11;;;;;;;1.65;1.48;;;;;;;5.65;97.04;97746.13;6135440;23;20005;-80
2021/12/04 14:58:37;;;;;;;2.00;1.80;;;;;;;5.67;96.92;97743.31;6109878;23;20016;-81
2021/12/04 15:01:10;;;;;;;4.07;1.98;;;;;;;5.65;97.21;97753.25;6134106;23;20102;-81